sensor_id;sensor_type;location;lat;lon;timestamp;temperature;humidity
12557;DHT22;6344;49.932;8.308;2023-05-25T00:00:33;8.50;99.90
12557;DHT22;6344;49.932;8.308;2023-05-25T00:03:00;8.50;99.90
12557;DHT22;6344;49.932;8.308;2023-05-25T00:05:28;8.30;99.90
12557;DHT22;6344;49.932;8.308;2023-05-25T00:07:54;8.30;99.90
12557;DHT22;6344;49.932;8.308;2023-05-25T00:10:21;8.20;99.90
12557;DHT22;6344;49.932;8.308;2023-05-25T00:12:48;8.20;99.90
12557;DHT22;6344;49.932;8.308;2023-05-25T00:15:16;8.10;99.90
12557;DHT22;6344;49.932;8.308;2023-05-25T00:17:43;7.90;99.90
12557;DHT22;6344;49.932;8.308;2023-05-25T00:20:10;8.20;99.90
12557;DHT22;6344;49.932;8.308;2023-05-25T00:22:39;8.20;99.90
12557;DHT22;6344;49.932;8.308;2023-05-25T00:25:09;8.30;99.90
12557;DHT22;6344;49.932;8.308;2023-05-25T00:27:36;8.40;99.90
12557;DHT22;6344;49.932;8.308;2023-05-25T00:30:03;8.50;99.90
12557;DHT22;6344;49.932;8.308;2023-05-25T00:32:31;8.70;99.90
12557;DHT22;6344;49.932;8.308;2023-05-25T00:34:58;8.80;99.90
12557;DHT22;6344;49.932;8.308;2023-05-25T00:37:24;8.60;99.90
12557;DHT22;6344;49.932;8.308;2023-05-25T00:39:51;8.60;99.90
12557;DHT22;6344;49.932;8.308;2023-05-25T00:42:18;8.40;99.90
12557;DHT22;6344;49.932;8.308;2023-05-25T00:44:45;8.50;99.90
12557;DHT22;6344;49.932;8.308;2023-05-25T00:47:13;8.50;99.90
12557;DHT22;6344;49.932;8.308;2023-05-25T00:49:42;8.60;99.90
12557;DHT22;6344;49.932;8.308;2023-05-25T00:52:09;8.50;99.90
12557;DHT22;6344;49.932;8.308;2023-05-25T00:54:37;8.30;99.90
12557;DHT22;6344;49.932;8.308;2023-05-25T00:57:06;8.30;99.90
12557;DHT22;6344;49.932;8.308;2023-05-25T00:59:36;8.50;99.90
12557;DHT22;6344;49.932;8.308;2023-05-25T01:02:07;8.30;99.90
12557;DHT22;6344;49.932;8.308;2023-05-25T01:04:36;8.30;99.90
12557;DHT22;6344;49.932;8.308;2023-05-25T01:07:07;8.40;99.90
12557;DHT22;6344;49.932;8.308;2023-05-25T01:09:34;8.40;99.90
12557;DHT22;6344;49.932;8.308;2023-05-25T01:12:05;8.30;99.90
12557;DHT22;6344;49.932;8.308;2023-05-25T01:14:32;8.40;99.90
12557;DHT22;6344;49.932;8.308;2023-05-25T01:17:00;8.40;99.90
12557;DHT22;6344;49.932;8.308;2023-05-25T01:19:28;8.20;99.90
12557;DHT22;6344;49.932;8.308;2023-05-25T01:22:02;8.00;99.90
12557;DHT22;6344;49.932;8.308;2023-05-25T01:24:33;7.90;99.90
12557;DHT22;6344;49.932;8.308;2023-05-25T01:27:09;8.20;99.90
12557;DHT22;6344;49.932;8.308;2023-05-25T01:29:39;8.00;99.90
12557;DHT22;6344;49.932;8.308;2023-05-25T01:32:07;7.80;99.90
12557;DHT22;6344;49.932;8.308;2023-05-25T01:34:35;7.80;99.90
12557;DHT22;6344;49.932;8.308;2023-05-25T01:37:04;7.90;99.90
12557;DHT22;6344;49.932;8.308;2023-05-25T01:39:31;8.00;99.90
12557;DHT22;6344;49.932;8.308;2023-05-25T01:41:58;8.00;99.90
12557;DHT22;6344;49.932;8.308;2023-05-25T01:44:26;8.00;99.90
12557;DHT22;6344;49.932;8.308;2023-05-25T01:46:59;8.10;99.90
12557;DHT22;6344;49.932;8.308;2023-05-25T01:49:33;8.10;99.90
12557;DHT22;6344;49.932;8.308;2023-05-25T01:52:14;8.30;99.90
12557;DHT22;6344;49.932;8.308;2023-05-25T01:54:44;8.30;99.90
12557;DHT22;6344;49.932;8.308;2023-05-25T01:57:14;8.20;99.90
12557;DHT22;6344;49.932;8.308;2023-05-25T01:59:43;8.20;99.90
12557;DHT22;6344;49.932;8.308;2023-05-25T02:04:38;8.30;99.90
12557;DHT22;6344;49.932;8.308;2023-05-25T02:07:07;8.30;99.90
12557;DHT22;6344;49.932;8.308;2023-05-25T02:09:33;8.40;99.90
12557;DHT22;6344;49.932;8.308;2023-05-25T02:12:00;8.30;99.90
12557;DHT22;6344;49.932;8.308;2023-05-25T02:14:27;8.30;99.90
12557;DHT22;6344;49.932;8.308;2023-05-25T02:16:53;8.30;99.90
12557;DHT22;6344;49.932;8.308;2023-05-25T02:19:22;8.30;99.90
12557;DHT22;6344;49.932;8.308;2023-05-25T02:21:48;8.40;99.90
12557;DHT22;6344;49.932;8.308;2023-05-25T02:24:16;8.40;99.90
12557;DHT22;6344;49.932;8.308;2023-05-25T02:26:43;8.30;99.90
12557;DHT22;6344;49.932;8.308;2023-05-25T02:29:10;8.30;99.90
12557;DHT22;6344;49.932;8.308;2023-05-25T02:31:36;8.20;99.90
12557;DHT22;6344;49.932;8.308;2023-05-25T02:34:03;8.30;99.90
12557;DHT22;6344;49.932;8.308;2023-05-25T02:36:30;8.20;99.90
12557;DHT22;6344;49.932;8.308;2023-05-25T02:38:56;8.10;99.90
12557;DHT22;6344;49.932;8.308;2023-05-25T02:41:24;8.10;99.90
12557;DHT22;6344;49.932;8.308;2023-05-25T02:43:51;8.10;99.90
12557;DHT22;6344;49.932;8.308;2023-05-25T02:46:19;8.10;99.90
12557;DHT22;6344;49.932;8.308;2023-05-25T02:48:47;8.10;99.90
12557;DHT22;6344;49.932;8.308;2023-05-25T02:51:13;8.00;99.90
12557;DHT22;6344;49.932;8.308;2023-05-25T02:53:40;8.00;99.90
12557;DHT22;6344;49.932;8.308;2023-05-25T02:56:07;7.90;99.90
12557;DHT22;6344;49.932;8.308;2023-05-25T02:58:36;8.00;99.90
12557;DHT22;6344;49.932;8.308;2023-05-25T03:01:02;7.90;99.90
12557;DHT22;6344;49.932;8.308;2023-05-25T03:03:30;7.90;99.90
12557;DHT22;6344;49.932;8.308;2023-05-25T03:05:56;7.80;99.90
12557;DHT22;6344;49.932;8.308;2023-05-25T03:08:23;8.00;99.90
12557;DHT22;6344;49.932;8.308;2023-05-25T03:10:50;7.90;99.90
12557;DHT22;6344;49.932;8.308;2023-05-25T03:13:17;7.80;99.90
12557;DHT22;6344;49.932;8.308;2023-05-25T03:15:45;7.70;99.90
12557;DHT22;6344;49.932;8.308;2023-05-25T03:18:11;7.70;99.90
12557;DHT22;6344;49.932;8.308;2023-05-25T03:20:38;7.80;99.90
12557;DHT22;6344;49.932;8.308;2023-05-25T03:23:05;7.70;99.90
12557;DHT22;6344;49.932;8.308;2023-05-25T03:25:32;7.60;99.90
12557;DHT22;6344;49.932;8.308;2023-05-25T03:27:59;7.60;99.90
12557;DHT22;6344;49.932;8.308;2023-05-25T03:30:25;7.60;99.90
12557;DHT22;6344;49.932;8.308;2023-05-25T03:32:53;7.50;99.90
12557;DHT22;6344;49.932;8.308;2023-05-25T03:35:20;7.40;99.90
12557;DHT22;6344;49.932;8.308;2023-05-25T03:37:46;7.20;99.90
12557;DHT22;6344;49.932;8.308;2023-05-25T03:40:13;7.10;99.90
12557;DHT22;6344;49.932;8.308;2023-05-25T03:42:40;7.00;99.90
12557;DHT22;6344;49.932;8.308;2023-05-25T03:45:07;7.00;99.90
12557;DHT22;6344;49.932;8.308;2023-05-25T03:47:34;7.00;99.90
12557;DHT22;6344;49.932;8.308;2023-05-25T03:50:02;7.10;99.90
12557;DHT22;6344;49.932;8.308;2023-05-25T03:52:29;7.10;99.90
12557;DHT22;6344;49.932;8.308;2023-05-25T03:54:55;7.10;99.90
12557;DHT22;6344;49.932;8.308;2023-05-25T03:57:22;7.00;99.90
12557;DHT22;6344;49.932;8.308;2023-05-25T03:59:49;7.00;99.90
12557;DHT22;6344;49.932;8.308;2023-05-25T04:02:15;7.20;99.90
12557;DHT22;6344;49.932;8.308;2023-05-25T04:04:42;7.30;99.90
12557;DHT22;6344;49.932;8.308;2023-05-25T04:07:10;7.40;99.90
12557;DHT22;6344;49.932;8.308;2023-05-25T04:09:37;7.50;99.90
12557;DHT22;6344;49.932;8.308;2023-05-25T04:12:04;7.50;99.90
12557;DHT22;6344;49.932;8.308;2023-05-25T04:14:31;7.50;99.90
12557;DHT22;6344;49.932;8.308;2023-05-25T04:16:57;7.60;99.90
12557;DHT22;6344;49.932;8.308;2023-05-25T04:19:24;7.70;99.90
12557;DHT22;6344;49.932;8.308;2023-05-25T04:21:50;7.90;99.90
12557;DHT22;6344;49.932;8.308;2023-05-25T04:24:20;8.00;99.90
12557;DHT22;6344;49.932;8.308;2023-05-25T04:26:46;8.20;99.90
12557;DHT22;6344;49.932;8.308;2023-05-25T04:29:14;8.50;99.90
12557;DHT22;6344;49.932;8.308;2023-05-25T04:31:40;8.60;99.90
12557;DHT22;6344;49.932;8.308;2023-05-25T04:34:09;8.70;99.90
12557;DHT22;6344;49.932;8.308;2023-05-25T04:36:38;8.80;99.90
12557;DHT22;6344;49.932;8.308;2023-05-25T04:39:07;8.80;99.90
12557;DHT22;6344;49.932;8.308;2023-05-25T04:41:35;8.80;99.90
12557;DHT22;6344;49.932;8.308;2023-05-25T04:44:03;8.90;99.90
12557;DHT22;6344;49.932;8.308;2023-05-25T04:46:30;9.00;99.90
12557;DHT22;6344;49.932;8.308;2023-05-25T04:48:57;9.10;99.90
12557;DHT22;6344;49.932;8.308;2023-05-25T04:51:23;9.50;99.90
12557;DHT22;6344;49.932;8.308;2023-05-25T04:53:50;9.70;99.90
12557;DHT22;6344;49.932;8.308;2023-05-25T04:56:16;9.90;99.90
12557;DHT22;6344;49.932;8.308;2023-05-25T04:58:44;10.00;99.90
12557;DHT22;6344;49.932;8.308;2023-05-25T05:01:11;10.10;99.90
12557;DHT22;6344;49.932;8.308;2023-05-25T05:03:38;10.20;99.90
12557;DHT22;6344;49.932;8.308;2023-05-25T05:06:05;10.20;99.90
12557;DHT22;6344;49.932;8.308;2023-05-25T05:08:31;10.30;99.90
12557;DHT22;6344;49.932;8.308;2023-05-25T05:10:58;10.40;99.90
12557;DHT22;6344;49.932;8.308;2023-05-25T05:13:25;10.60;99.90
12557;DHT22;6344;49.932;8.308;2023-05-25T05:15:53;10.70;99.90
12557;DHT22;6344;49.932;8.308;2023-05-25T05:18:20;10.80;99.90
12557;DHT22;6344;49.932;8.308;2023-05-25T05:20:46;10.90;99.90
12557;DHT22;6344;49.932;8.308;2023-05-25T05:23:13;11.10;99.90
12557;DHT22;6344;49.932;8.308;2023-05-25T05:25:40;11.30;99.90
12557;DHT22;6344;49.932;8.308;2023-05-25T05:28:06;11.40;99.90
12557;DHT22;6344;49.932;8.308;2023-05-25T05:30:33;11.40;99.90
12557;DHT22;6344;49.932;8.308;2023-05-25T05:33:01;11.50;99.90
12557;DHT22;6344;49.932;8.308;2023-05-25T05:35:28;11.60;99.90
12557;DHT22;6344;49.932;8.308;2023-05-25T05:37:54;11.70;99.90
12557;DHT22;6344;49.932;8.308;2023-05-25T05:40:21;11.80;99.90
12557;DHT22;6344;49.932;8.308;2023-05-25T05:42:49;12.00;99.90
12557;DHT22;6344;49.932;8.308;2023-05-25T05:45:15;12.10;99.90
12557;DHT22;6344;49.932;8.308;2023-05-25T05:47:42;12.10;99.90
12557;DHT22;6344;49.932;8.308;2023-05-25T05:50:10;12.30;99.90
12557;DHT22;6344;49.932;8.308;2023-05-25T05:52:37;12.30;99.90
12557;DHT22;6344;49.932;8.308;2023-05-25T05:55:04;12.50;99.90
12557;DHT22;6344;49.932;8.308;2023-05-25T05:57:31;12.80;99.90
12557;DHT22;6344;49.932;8.308;2023-05-25T05:59:57;13.20;99.90
12557;DHT22;6344;49.932;8.308;2023-05-25T06:02:24;13.50;99.90
12557;DHT22;6344;49.932;8.308;2023-05-25T06:04:51;13.60;99.90
12557;DHT22;6344;49.932;8.308;2023-05-25T06:07:20;13.80;99.90
12557;DHT22;6344;49.932;8.308;2023-05-25T06:09:46;14.00;99.90
12557;DHT22;6344;49.932;8.308;2023-05-25T06:12:13;14.10;99.90
12557;DHT22;6344;49.932;8.308;2023-05-25T06:14:40;14.20;99.90
12557;DHT22;6344;49.932;8.308;2023-05-25T06:17:07;14.10;99.90
12557;DHT22;6344;49.932;8.308;2023-05-25T06:19:33;14.10;99.90
12557;DHT22;6344;49.932;8.308;2023-05-25T06:22:00;14.40;99.90
12557;DHT22;6344;49.932;8.308;2023-05-25T06:24:28;14.90;99.90
12557;DHT22;6344;49.932;8.308;2023-05-25T06:26:55;15.10;94.80
12557;DHT22;6344;49.932;8.308;2023-05-25T06:29:22;15.10;68.80
12557;DHT22;6344;49.932;8.308;2023-05-25T06:31:48;15.10;34.80
12557;DHT22;6344;49.932;8.308;2023-05-25T06:34:15;15.20;48.40
12557;DHT22;6344;49.932;8.308;2023-05-25T06:36:42;15.30;24.20
12557;DHT22;6344;49.932;8.308;2023-05-25T06:39:08;15.10;63.80
12557;DHT22;6344;49.932;8.308;2023-05-25T06:41:37;15.70;34.90
12557;DHT22;6344;49.932;8.308;2023-05-25T06:44:04;16.00;1.00
12557;DHT22;6344;49.932;8.308;2023-05-25T06:46:31;16.10;1.00
12557;DHT22;6344;49.932;8.308;2023-05-25T06:48:58;16.40;1.00
12557;DHT22;6344;49.932;8.308;2023-05-25T06:51:24;16.50;1.00
12557;DHT22;6344;49.932;8.308;2023-05-25T06:53:51;16.50;1.00
12557;DHT22;6344;49.932;8.308;2023-05-25T06:56:18;16.60;1.00
12557;DHT22;6344;49.932;8.308;2023-05-25T06:58:47;16.00;1.00
12557;DHT22;6344;49.932;8.308;2023-05-25T07:01:13;16.30;1.00
12557;DHT22;6344;49.932;8.308;2023-05-25T07:03:40;16.60;1.00
12557;DHT22;6344;49.932;8.308;2023-05-25T07:06:07;16.70;1.00
12557;DHT22;6344;49.932;8.308;2023-05-25T07:08:36;16.40;1.00
12557;DHT22;6344;49.932;8.308;2023-05-25T07:11:03;16.50;1.00
12557;DHT22;6344;49.932;8.308;2023-05-25T07:13:29;16.70;1.00
12557;DHT22;6344;49.932;8.308;2023-05-25T07:15:57;17.00;1.00
12557;DHT22;6344;49.932;8.308;2023-05-25T07:18:25;17.00;1.00
12557;DHT22;6344;49.932;8.308;2023-05-25T07:20:51;17.20;1.00
12557;DHT22;6344;49.932;8.308;2023-05-25T07:23:18;17.20;1.00
12557;DHT22;6344;49.932;8.308;2023-05-25T07:25:45;17.50;1.00
12557;DHT22;6344;49.932;8.308;2023-05-25T07:28:12;17.60;1.00
12557;DHT22;6344;49.932;8.308;2023-05-25T07:30:39;17.20;1.00
12557;DHT22;6344;49.932;8.308;2023-05-25T07:33:07;17.50;99.90
12557;DHT22;6344;49.932;8.308;2023-05-25T07:35:34;17.90;1.00
12557;DHT22;6344;49.932;8.308;2023-05-25T07:38:02;17.70;1.00
12557;DHT22;6344;49.932;8.308;2023-05-25T07:40:29;17.70;1.00
12557;DHT22;6344;49.932;8.308;2023-05-25T07:42:56;17.40;1.00
12557;DHT22;6344;49.932;8.308;2023-05-25T07:45:22;17.40;99.90
12557;DHT22;6344;49.932;8.308;2023-05-25T07:47:49;17.60;99.90
12557;DHT22;6344;49.932;8.308;2023-05-25T07:50:17;17.40;1.00
12557;DHT22;6344;49.932;8.308;2023-05-25T07:52:44;17.70;99.90
12557;DHT22;6344;49.932;8.308;2023-05-25T07:55:11;17.70;99.90
12557;DHT22;6344;49.932;8.308;2023-05-25T07:57:38;17.90;1.00
12557;DHT22;6344;49.932;8.308;2023-05-25T08:00:06;17.70;1.00
12557;DHT22;6344;49.932;8.308;2023-05-25T08:02:33;18.10;1.00
12557;DHT22;6344;49.932;8.308;2023-05-25T08:05:00;17.80;99.90
12557;DHT22;6344;49.932;8.308;2023-05-25T08:07:31;18.20;1.00
12557;DHT22;6344;49.932;8.308;2023-05-25T08:09:58;18.80;99.90
12557;DHT22;6344;49.932;8.308;2023-05-25T08:12:25;18.90;3.10
12557;DHT22;6344;49.932;8.308;2023-05-25T08:14:52;19.30;99.90
12557;DHT22;6344;49.932;8.308;2023-05-25T08:17:19;19.70;99.90
12557;DHT22;6344;49.932;8.308;2023-05-25T08:19:45;19.50;1.00
12557;DHT22;6344;49.932;8.308;2023-05-25T08:22:12;20.00;99.90
12557;DHT22;6344;49.932;8.308;2023-05-25T08:24:40;19.80;45.50
12557;DHT22;6344;49.932;8.308;2023-05-25T08:27:06;19.70;1.00
12557;DHT22;6344;49.932;8.308;2023-05-25T08:29:33;19.70;17.10
12557;DHT22;6344;49.932;8.308;2023-05-25T08:32:00;19.80;1.00
12557;DHT22;6344;49.932;8.308;2023-05-25T08:34:26;19.90;1.00
12557;DHT22;6344;49.932;8.308;2023-05-25T08:36:53;20.40;99.90
12557;DHT22;6344;49.932;8.308;2023-05-25T08:39:20;20.10;99.90
12557;DHT22;6344;49.932;8.308;2023-05-25T08:41:49;20.10;99.90
12557;DHT22;6344;49.932;8.308;2023-05-25T08:44:17;20.20;99.90
12557;DHT22;6344;49.932;8.308;2023-05-25T08:46:46;20.10;99.90
12557;DHT22;6344;49.932;8.308;2023-05-25T08:49:14;20.40;99.90
12557;DHT22;6344;49.932;8.308;2023-05-25T08:51:42;20.80;99.90
12557;DHT22;6344;49.932;8.308;2023-05-25T08:54:12;20.80;99.90
12557;DHT22;6344;49.932;8.308;2023-05-25T08:56:43;20.40;99.90
12557;DHT22;6344;49.932;8.308;2023-05-25T08:59:24;20.60;99.90
12557;DHT22;6344;49.932;8.308;2023-05-25T09:01:57;20.70;99.90
12557;DHT22;6344;49.932;8.308;2023-05-25T09:04:24;21.00;99.90
12557;DHT22;6344;49.932;8.308;2023-05-25T09:06:51;21.30;99.90
12557;DHT22;6344;49.932;8.308;2023-05-25T09:09:18;20.70;99.90
12557;DHT22;6344;49.932;8.308;2023-05-25T09:11:45;21.00;99.90
12557;DHT22;6344;49.932;8.308;2023-05-25T09:14:12;20.80;99.90
12557;DHT22;6344;49.932;8.308;2023-05-25T09:16:41;20.50;99.90
12557;DHT22;6344;49.932;8.308;2023-05-25T09:19:08;20.50;99.90
12557;DHT22;6344;49.932;8.308;2023-05-25T09:21:34;20.80;99.90
12557;DHT22;6344;49.932;8.308;2023-05-25T09:24:01;21.20;99.90
12557;DHT22;6344;49.932;8.308;2023-05-25T09:26:28;21.50;99.90
12557;DHT22;6344;49.932;8.308;2023-05-25T09:28:55;21.60;99.90
12557;DHT22;6344;49.932;8.308;2023-05-25T09:31:22;21.30;99.90
12557;DHT22;6344;49.932;8.308;2023-05-25T09:33:50;21.90;99.90
12557;DHT22;6344;49.932;8.308;2023-05-25T09:36:20;22.30;99.90
12557;DHT22;6344;49.932;8.308;2023-05-25T09:38:47;22.70;99.90
12557;DHT22;6344;49.932;8.308;2023-05-25T09:41:14;23.10;99.90
12557;DHT22;6344;49.932;8.308;2023-05-25T09:43:41;23.30;99.90
12557;DHT22;6344;49.932;8.308;2023-05-25T09:46:07;22.90;99.90
12557;DHT22;6344;49.932;8.308;2023-05-25T09:48:34;22.70;99.90
12557;DHT22;6344;49.932;8.308;2023-05-25T09:51:05;22.50;99.90
12557;DHT22;6344;49.932;8.308;2023-05-25T09:53:32;22.00;99.90
12557;DHT22;6344;49.932;8.308;2023-05-25T09:55:59;21.60;99.90
12557;DHT22;6344;49.932;8.308;2023-05-25T09:58:26;21.80;99.90
12557;DHT22;6344;49.932;8.308;2023-05-25T10:00:53;21.90;99.90
12557;DHT22;6344;49.932;8.308;2023-05-25T10:03:19;21.90;99.90
12557;DHT22;6344;49.932;8.308;2023-05-25T10:05:47;22.20;99.90
12557;DHT22;6344;49.932;8.308;2023-05-25T10:08:16;22.20;99.90
12557;DHT22;6344;49.932;8.308;2023-05-25T10:10:46;22.50;99.90
12557;DHT22;6344;49.932;8.308;2023-05-25T10:13:14;22.70;99.90
12557;DHT22;6344;49.932;8.308;2023-05-25T10:15:44;22.50;99.90
12557;DHT22;6344;49.932;8.308;2023-05-25T10:18:13;22.00;99.90
12557;DHT22;6344;49.932;8.308;2023-05-25T10:20:41;22.40;99.90
12557;DHT22;6344;49.932;8.308;2023-05-25T10:23:10;22.60;99.90
12557;DHT22;6344;49.932;8.308;2023-05-25T10:25:43;22.90;99.90
12557;DHT22;6344;49.932;8.308;2023-05-25T10:28:15;23.00;99.90
12557;DHT22;6344;49.932;8.308;2023-05-25T10:30:44;22.40;99.90
12557;DHT22;6344;49.932;8.308;2023-05-25T10:33:11;22.80;99.90
12557;DHT22;6344;49.932;8.308;2023-05-25T10:35:39;23.20;99.90
12557;DHT22;6344;49.932;8.308;2023-05-25T10:38:07;23.80;99.90
12557;DHT22;6344;49.932;8.308;2023-05-25T10:40:34;23.50;99.90
12557;DHT22;6344;49.932;8.308;2023-05-25T10:43:04;23.30;99.90
12557;DHT22;6344;49.932;8.308;2023-05-25T10:45:31;23.10;99.90
12557;DHT22;6344;49.932;8.308;2023-05-25T10:47:58;22.90;99.90
12557;DHT22;6344;49.932;8.308;2023-05-25T10:50:26;22.90;99.90
12557;DHT22;6344;49.932;8.308;2023-05-25T10:53:00;23.00;99.90
12557;DHT22;6344;49.932;8.308;2023-05-25T10:55:27;23.10;99.90
12557;DHT22;6344;49.932;8.308;2023-05-25T10:58:11;23.40;99.90
12557;DHT22;6344;49.932;8.308;2023-05-25T11:00:38;23.90;99.90
12557;DHT22;6344;49.932;8.308;2023-05-25T11:03:08;23.50;99.90
12557;DHT22;6344;49.932;8.308;2023-05-25T11:05:36;23.60;99.90
12557;DHT22;6344;49.932;8.308;2023-05-25T11:08:05;23.70;99.90
12557;DHT22;6344;49.932;8.308;2023-05-25T11:10:42;24.20;99.90
12557;DHT22;6344;49.932;8.308;2023-05-25T11:13:32;23.90;99.90
12557;DHT22;6344;49.932;8.308;2023-05-25T11:16:19;23.60;99.90
12557;DHT22;6344;49.932;8.308;2023-05-25T11:18:52;23.40;99.90
12557;DHT22;6344;49.932;8.308;2023-05-25T11:24:12;23.20;99.90
12557;DHT22;6344;49.932;8.308;2023-05-25T11:26:52;23.70;99.90
12557;DHT22;6344;49.932;8.308;2023-05-25T11:29:21;23.40;99.90
12557;DHT22;6344;49.932;8.308;2023-05-25T11:31:52;23.70;99.90
12557;DHT22;6344;49.932;8.308;2023-05-25T11:34:20;24.30;99.90
12557;DHT22;6344;49.932;8.308;2023-05-25T11:36:47;24.10;99.90
12557;DHT22;6344;49.932;8.308;2023-05-25T11:39:14;23.60;99.90
12557;DHT22;6344;49.932;8.308;2023-05-25T11:41:45;23.60;99.90
12557;DHT22;6344;49.932;8.308;2023-05-25T11:44:13;23.20;99.90
12557;DHT22;6344;49.932;8.308;2023-05-25T11:46:41;23.30;99.90
12557;DHT22;6344;49.932;8.308;2023-05-25T11:49:12;23.60;99.90
12557;DHT22;6344;49.932;8.308;2023-05-25T11:51:39;24.70;99.90
12557;DHT22;6344;49.932;8.308;2023-05-25T11:54:06;25.20;99.90
12557;DHT22;6344;49.932;8.308;2023-05-25T11:56:32;24.70;99.90
12557;DHT22;6344;49.932;8.308;2023-05-25T11:58:59;24.70;99.90
12557;DHT22;6344;49.932;8.308;2023-05-25T12:01:26;24.50;99.90
12557;DHT22;6344;49.932;8.308;2023-05-25T12:03:57;24.00;99.90
12557;DHT22;6344;49.932;8.308;2023-05-25T12:06:25;24.80;99.90
12557;DHT22;6344;49.932;8.308;2023-05-25T12:08:52;25.20;99.90
12557;DHT22;6344;49.932;8.308;2023-05-25T12:11:26;25.40;99.90
12557;DHT22;6344;49.932;8.308;2023-05-25T12:13:53;25.10;99.90
12557;DHT22;6344;49.932;8.308;2023-05-25T12:16:20;24.60;99.90
12557;DHT22;6344;49.932;8.308;2023-05-25T12:18:47;24.80;99.90
12557;DHT22;6344;49.932;8.308;2023-05-25T12:21:15;24.20;99.90
12557;DHT22;6344;49.932;8.308;2023-05-25T12:23:42;24.10;99.90
12557;DHT22;6344;49.932;8.308;2023-05-25T12:26:10;24.70;99.90
12557;DHT22;6344;49.932;8.308;2023-05-25T12:28:37;25.30;99.90
12557;DHT22;6344;49.932;8.308;2023-05-25T12:31:19;25.30;99.90
12557;DHT22;6344;49.932;8.308;2023-05-25T12:34:01;25.10;99.90
12557;DHT22;6344;49.932;8.308;2023-05-25T12:36:40;25.80;99.90
12557;DHT22;6344;49.932;8.308;2023-05-25T12:39:08;26.20;99.90
12557;DHT22;6344;49.932;8.308;2023-05-25T12:41:43;25.60;24.30
12557;DHT22;6344;49.932;8.308;2023-05-25T12:44:21;25.90;99.90
12557;DHT22;6344;49.932;8.308;2023-05-25T12:46:49;26.40;99.90
12557;DHT22;6344;49.932;8.308;2023-05-25T12:49:26;26.40;1.00
12557;DHT22;6344;49.932;8.308;2023-05-25T12:51:55;25.60;1.00
12557;DHT22;6344;49.932;8.308;2023-05-25T12:54:39;25.50;99.90
12557;DHT22;6344;49.932;8.308;2023-05-25T12:57:09;25.70;1.00
12557;DHT22;6344;49.932;8.308;2023-05-25T12:59:36;25.40;1.00
12557;DHT22;6344;49.932;8.308;2023-05-25T13:02:04;25.30;1.00
12557;DHT22;6344;49.932;8.308;2023-05-25T13:04:31;25.40;1.00
12557;DHT22;6344;49.932;8.308;2023-05-25T13:07:00;26.10;1.00
12557;DHT22;6344;49.932;8.308;2023-05-25T13:09:27;25.90;1.00
12557;DHT22;6344;49.932;8.308;2023-05-25T13:11:53;25.50;1.00
12557;DHT22;6344;49.932;8.308;2023-05-25T13:14:21;26.00;1.00
12557;DHT22;6344;49.932;8.308;2023-05-25T13:16:48;25.60;99.90
12557;DHT22;6344;49.932;8.308;2023-05-25T13:19:15;25.60;99.90
12557;DHT22;6344;49.932;8.308;2023-05-25T13:21:42;25.30;1.00
12557;DHT22;6344;49.932;8.308;2023-05-25T13:24:10;26.20;1.00
12557;DHT22;6344;49.932;8.308;2023-05-25T13:26:37;26.40;99.90
12557;DHT22;6344;49.932;8.308;2023-05-25T13:29:04;26.40;99.90
12557;DHT22;6344;49.932;8.308;2023-05-25T13:31:30;27.00;99.90
12557;DHT22;6344;49.932;8.308;2023-05-25T13:33:57;27.20;99.90
12557;DHT22;6344;49.932;8.308;2023-05-25T13:36:24;26.80;99.90
12557;DHT22;6344;49.932;8.308;2023-05-25T13:38:51;26.30;99.90
12557;DHT22;6344;49.932;8.308;2023-05-25T13:41:19;26.00;99.90
12557;DHT22;6344;49.932;8.308;2023-05-25T13:43:45;26.70;99.90
12557;DHT22;6344;49.932;8.308;2023-05-25T13:46:12;26.80;99.90
12557;DHT22;6344;49.932;8.308;2023-05-25T13:48:39;26.80;1.00
12557;DHT22;6344;49.932;8.308;2023-05-25T13:51:12;26.60;99.90
12557;DHT22;6344;49.932;8.308;2023-05-25T13:53:38;27.10;1.00
12557;DHT22;6344;49.932;8.308;2023-05-25T13:56:05;26.90;1.00
12557;DHT22;6344;49.932;8.308;2023-05-25T13:58:33;27.00;1.00
12557;DHT22;6344;49.932;8.308;2023-05-25T14:01:00;26.70;1.00
12557;DHT22;6344;49.932;8.308;2023-05-25T14:03:27;27.00;1.00
12557;DHT22;6344;49.932;8.308;2023-05-25T14:05:54;27.50;1.00
12557;DHT22;6344;49.932;8.308;2023-05-25T14:08:21;27.50;1.00
12557;DHT22;6344;49.932;8.308;2023-05-25T14:10:47;27.50;1.00
12557;DHT22;6344;49.932;8.308;2023-05-25T14:13:14;27.10;1.00
12557;DHT22;6344;49.932;8.308;2023-05-25T14:15:42;27.50;1.00
12557;DHT22;6344;49.932;8.308;2023-05-25T14:18:09;28.10;1.00
12557;DHT22;6344;49.932;8.308;2023-05-25T14:20:35;28.10;1.00
12557;DHT22;6344;49.932;8.308;2023-05-25T14:23:04;27.60;1.00
12557;DHT22;6344;49.932;8.308;2023-05-25T14:25:31;27.70;1.00
12557;DHT22;6344;49.932;8.308;2023-05-25T14:27:57;28.20;1.00
12557;DHT22;6344;49.932;8.308;2023-05-25T14:30:24;28.30;1.00
12557;DHT22;6344;49.932;8.308;2023-05-25T14:32:52;27.30;1.00
12557;DHT22;6344;49.932;8.308;2023-05-25T14:35:18;27.20;1.00
12557;DHT22;6344;49.932;8.308;2023-05-25T14:37:45;26.70;1.00
12557;DHT22;6344;49.932;8.308;2023-05-25T14:40:12;26.80;1.00
12557;DHT22;6344;49.932;8.308;2023-05-25T14:42:39;27.00;1.00
12557;DHT22;6344;49.932;8.308;2023-05-25T14:45:06;27.20;1.00
12557;DHT22;6344;49.932;8.308;2023-05-25T14:47:33;27.30;1.00
12557;DHT22;6344;49.932;8.308;2023-05-25T14:50:01;27.10;1.00
12557;DHT22;6344;49.932;8.308;2023-05-25T14:52:28;27.00;19.90
12557;DHT22;6344;49.932;8.308;2023-05-25T14:54:54;27.10;1.00
12557;DHT22;6344;49.932;8.308;2023-05-25T14:57:21;27.70;1.00
12557;DHT22;6344;49.932;8.308;2023-05-25T14:59:48;27.80;1.00
12557;DHT22;6344;49.932;8.308;2023-05-25T15:02:14;27.10;99.90
12557;DHT22;6344;49.932;8.308;2023-05-25T15:04:41;26.60;1.00
12557;DHT22;6344;49.932;8.308;2023-05-25T15:07:09;26.30;1.00
12557;DHT22;6344;49.932;8.308;2023-05-25T15:09:36;26.40;1.00
12557;DHT22;6344;49.932;8.308;2023-05-25T15:12:03;26.80;1.00
12557;DHT22;6344;49.932;8.308;2023-05-25T15:14:32;27.00;1.00
12557;DHT22;6344;49.932;8.308;2023-05-25T15:16:59;26.50;1.00
12557;DHT22;6344;49.932;8.308;2023-05-25T15:19:26;26.00;1.00
12557;DHT22;6344;49.932;8.308;2023-05-25T15:21:52;26.00;1.00
12557;DHT22;6344;49.932;8.308;2023-05-25T15:24:20;26.70;1.00
12557;DHT22;6344;49.932;8.308;2023-05-25T15:26:47;27.10;99.90
12557;DHT22;6344;49.932;8.308;2023-05-25T15:29:13;28.00;99.90
12557;DHT22;6344;49.932;8.308;2023-05-25T15:31:40;27.10;99.90
12557;DHT22;6344;49.932;8.308;2023-05-25T15:34:07;26.30;1.00
12557;DHT22;6344;49.932;8.308;2023-05-25T15:36:35;26.20;1.00
12557;DHT22;6344;49.932;8.308;2023-05-25T15:39:02;26.60;1.00
12557;DHT22;6344;49.932;8.308;2023-05-25T15:41:30;26.30;1.00
12557;DHT22;6344;49.932;8.308;2023-05-25T15:43:56;25.50;1.00
12557;DHT22;6344;49.932;8.308;2023-05-25T15:46:25;25.60;1.00
12557;DHT22;6344;49.932;8.308;2023-05-25T15:48:52;26.00;1.00
12557;DHT22;6344;49.932;8.308;2023-05-25T15:51:19;25.80;1.00
12557;DHT22;6344;49.932;8.308;2023-05-25T15:53:46;26.10;1.00
12557;DHT22;6344;49.932;8.308;2023-05-25T15:56:12;26.30;1.00
12557;DHT22;6344;49.932;8.308;2023-05-25T15:58:40;26.10;1.00
12557;DHT22;6344;49.932;8.308;2023-05-25T16:01:11;25.90;99.90
12557;DHT22;6344;49.932;8.308;2023-05-25T16:03:38;25.50;99.90